Rogers, AR (72758)

2:45 AM CDT on July 03, 2015 (GMT -0500)
Southeast side of Rogers, Arkansas | | Change Station
CLOSE
Current Station
Personal Weather Station
Location: Rogers, AR
Elevation: 1328 ft
Nearby Weather Stations

Elev 1328 ft 36.32 °N, 94.12 °W | Updated 51 seconds ago

Partly Cloudy
Partly Cloudy
69.3 °F
Feels Like 69.3 °F
N
0.0
Wind Variable Wind from WNW
Gusts 0.0 mph

Today
High -- | Low -- °F
--% Chance of Precip.
Yesterday
High -- | Low -- °F
Precip. -- in
6:03 AM 8:37 PM
Full, 98% visible
Pressure 29.89 in
Visibility 10.0 miles
Clouds Few 10000 ft
Dew Point 66 °F
Humidity 92%
Rainfall 0.00 in
Snow Depth Not available.
UV 0.0 out of 12
Pollen 3.70 out of 12
Air Quality Not available.
Flu Activity Not available.
METAR KROG 030657Z 25005KT 10SM FEW100 21/19 A2994 RMK AO2 SLP122 T02060189

More Conditions Fewer Conditions

Pressure 29.89 in
Visibility 10.0 miles
Clouds Few 10000 ft
Dew Point 66 °F
Humidity 92%
Rainfall 0.00 in
Snow Depth Not available.
UV 0.0 out of 12
Pollen 3.70 out of 12
Air Quality Not available.
Flu Activity Not available.
METAR KROG 030657Z 25005KT 10SM FEW100 21/19 A2994 RMK AO2 SLP122 T02060189

More Conditions Fewer Conditions

Nowcast | as of 1:55 am CDT on July 3, 2015

at 1:55 am...showers and thunderstorms persisted roughly along a line from just east of lake Eufaula northwestward toward the Tulsa Metro area. Additional showers just south of the Interstate 40 corridor continued to diminish. All activity was moving to the east and southeast at 25 mph. Through 3 am...showers and thunderstorms will continue moving across eastern Oklahoma and west central Arkansas. Rainfall amounts will range from a tenth of an inch to upwards of one-half inch in thunderstorms. Gusty winds may also occur with the stronger storms.

×

10-Day Weather Forecast

×

Almanac

Astronomy

Jul. 03, 2015 Rise Set
Actual Time
Civil Twilight
Nautical Twilight
Astronomical Twilight
Moon
Length of Visible Light
Length of Day
Tomorrow will be .
, % of the Moon is Illuminated

Today's Extremes

State Highs State Lows

Community

WunderPhotos

Upload Photos

1,834,634 photos uploaded!

WunderBlogs® & News

Nearby

Air Quality

  Air Quality AQ Index Pollutant
Not available.

Snow Depth

Station Depth Elevation

Earthquake Activity

City Distance Mag. Time & Date
Minimum magnitude displayed is 2.5.

Coastal Water Temperatures

Place Temperature

Stations

Nearby Weather Stations

Station Location Temp. Windchill Dew Point Humidity Wind Precip. Elev Updated Type